createdAt,value
2022-12-04T00:00:16.353Z,52.2
2022-12-04T00:05:16.429Z,52.3
2022-12-04T00:10:16.274Z,52.3
2022-12-04T00:15:25.186Z,52.0
2022-12-04T00:20:16.280Z,51.9
2022-12-04T00:25:16.319Z,52.0
2022-12-04T00:30:16.356Z,51.9
2022-12-04T00:35:16.364Z,51.9
2022-12-04T00:40:16.320Z,51.9
2022-12-04T00:45:16.430Z,51.9
2022-12-04T00:50:16.433Z,52.0
2022-12-04T00:55:16.360Z,52.1
2022-12-04T01:00:16.373Z,51.2
2022-12-04T01:05:16.343Z,50.5
2022-12-04T01:10:16.372Z,49.9
2022-12-04T01:15:16.374Z,49.4
2022-12-04T01:20:16.408Z,48.9
2022-12-04T01:25:16.404Z,48.3
2022-12-04T01:30:16.414Z,47.6
2022-12-04T01:35:16.640Z,46.2
2022-12-04T01:40:16.527Z,45.5
2022-12-04T01:45:16.586Z,44.8
2022-12-04T01:50:16.410Z,43.7
2022-12-04T01:55:16.348Z,43.1
2022-12-04T02:00:16.659Z,42.3
2022-12-04T02:05:16.520Z,42.2
2022-12-04T02:10:16.462Z,41.3
2022-12-04T02:15:16.704Z,41.5
2022-12-04T02:20:16.498Z,40.7
2022-12-04T02:25:16.839Z,39.8
2022-12-04T02:30:16.535Z,39.6
2022-12-04T02:35:16.572Z,39.9
2022-12-04T02:40:16.637Z,40.0
2022-12-04T02:45:16.564Z,39.0
2022-12-04T02:50:16.713Z,38.5
2022-12-04T02:55:16.547Z,38.9
2022-12-04T03:00:16.659Z,38.3
2022-12-04T03:05:16.579Z,37.3
2022-12-04T03:10:16.842Z,37.4
2022-12-04T03:15:16.660Z,36.8
2022-12-04T03:20:16.677Z,36.9
2022-12-04T03:25:16.727Z,36.4
2022-12-04T03:30:16.703Z,36.7
2022-12-04T03:35:16.741Z,36.4
2022-12-04T03:40:16.758Z,36.4
2022-12-04T03:45:16.767Z,36.1
2022-12-04T03:50:16.651Z,35.9
2022-12-04T03:55:16.657Z,35.8
2022-12-04T04:00:16.667Z,35.5
2022-12-04T04:05:16.692Z,35.6
2022-12-04T04:10:16.796Z,35.5
2022-12-04T04:15:16.778Z,35.0
2022-12-04T04:20:16.818Z,35.2
2022-12-04T04:25:16.742Z,34.7
2022-12-04T04:30:16.847Z,34.7
2022-12-04T04:35:16.770Z,34.7
2022-12-04T04:40:16.802Z,34.3
2022-12-04T04:45:16.910Z,34.6
2022-12-04T04:50:16.881Z,34.1
2022-12-04T04:55:16.867Z,34.3
2022-12-04T05:00:15.815Z,34.0
2022-12-04T05:05:15.884Z,33.9
2022-12-04T05:10:15.981Z,34.1
2022-12-04T05:15:16.041Z,34.1
2022-12-04T05:20:15.935Z,33.9
2022-12-04T05:25:15.963Z,33.8
2022-12-04T05:30:15.885Z,33.7
2022-12-04T05:35:16.056Z,33.7
2022-12-04T05:40:16.016Z,33.7
2022-12-04T05:45:15.949Z,33.6
2022-12-04T05:50:16.051Z,33.9
2022-12-04T05:55:15.902Z,33.4
2022-12-04T06:00:16.067Z,33.4
2022-12-04T06:05:15.982Z,33.1
2022-12-04T06:10:16.041Z,32.7
2022-12-04T06:15:16.061Z,32.5
2022-12-04T06:20:16.106Z,32.2
2022-12-04T06:25:15.983Z,32.2
2022-12-04T06:30:16.128Z,31.8
2022-12-04T06:35:16.105Z,31.6
2022-12-04T06:40:16.117Z,31.6
2022-12-04T06:45:16.032Z,31.6
2022-12-04T06:50:16.093Z,31.8
2022-12-04T06:55:16.121Z,30.8
2022-12-04T07:00:16.076Z,31.5
2022-12-04T07:05:16.310Z,30.5
2022-12-04T07:10:16.163Z,30.9
2022-12-04T07:15:16.084Z,31.0
2022-12-04T07:20:16.152Z,30.7
2022-12-04T07:25:16.216Z,30.4
2022-12-04T07:30:16.403Z,30.6
2022-12-04T07:35:16.235Z,30.6
2022-12-04T07:40:16.369Z,30.8
2022-12-04T07:45:16.187Z,31.1
2022-12-04T07:50:16.255Z,30.6
2022-12-04T07:55:21.608Z,30.6
2022-12-04T08:00:16.231Z,30.5
2022-12-04T08:05:16.296Z,30.7
2022-12-04T08:10:16.215Z,30.6
2022-12-04T08:15:16.306Z,30.9
2022-12-04T08:20:16.294Z,31.0
2022-12-04T08:25:16.213Z,30.9
2022-12-04T08:30:16.316Z,30.5
2022-12-04T08:35:16.309Z,30.4
2022-12-04T08:40:16.311Z,30.7
2022-12-04T08:45:16.258Z,29.6
2022-12-04T08:50:16.504Z,29.5
2022-12-04T08:55:16.371Z,29.6
2022-12-04T09:00:16.714Z,30.4
2022-12-04T09:05:17.441Z,29.7
2022-12-04T09:10:16.312Z,29.6
2022-12-04T09:15:16.421Z,29.9
2022-12-04T09:20:16.390Z,29.1
2022-12-04T09:25:16.548Z,28.7
2022-12-04T09:30:16.346Z,28.7
2022-12-04T09:35:16.383Z,29.5
2022-12-04T09:40:16.470Z,29.0
2022-12-04T09:45:16.369Z,28.1
2022-12-04T09:50:16.403Z,28.1
2022-12-04T09:55:16.382Z,28.5
2022-12-04T10:00:16.499Z,27.7
2022-12-04T10:05:16.539Z,28.8
2022-12-04T10:10:16.537Z,27.1
2022-12-04T10:15:16.474Z,28.6
2022-12-04T10:20:16.493Z,28.2
2022-12-04T10:25:16.535Z,29.5
2022-12-04T10:30:16.569Z,28.2
2022-12-04T10:35:16.568Z,28.2
2022-12-04T10:40:16.599Z,28.0
2022-12-04T10:45:16.564Z,28.7
2022-12-04T10:50:16.778Z,28.3
2022-12-04T10:55:16.827Z,28.5
2022-12-04T11:00:16.636Z,27.6
2022-12-04T11:05:16.690Z,28.3
2022-12-04T11:10:16.584Z,27.9
2022-12-04T11:15:16.676Z,27.3
2022-12-04T11:20:16.659Z,27.6
2022-12-04T11:25:16.763Z,27.7
2022-12-04T11:30:16.605Z,28.3
2022-12-04T11:35:16.788Z,28.1
2022-12-04T11:40:16.718Z,28.3
2022-12-04T11:45:16.759Z,28.1
2022-12-04T11:50:16.787Z,27.9
2022-12-04T11:55:16.597Z,27.9
2022-12-04T12:00:16.991Z,27.8
2022-12-04T12:05:16.715Z,27.8
2022-12-04T12:10:16.741Z,28.1
2022-12-04T12:15:16.722Z,28.0
2022-12-04T12:20:16.778Z,28.2
2022-12-04T12:25:16.788Z,28.2
2022-12-04T12:30:17.055Z,28.0
2022-12-04T12:35:16.988Z,28.3
2022-12-04T12:40:16.849Z,27.9
2022-12-04T12:45:16.878Z,27.7
2022-12-04T12:50:16.838Z,28.6
2022-12-04T12:55:16.751Z,29.2
2022-12-04T13:00:16.867Z,29.1
2022-12-04T13:05:16.853Z,27.9
2022-12-04T13:10:16.856Z,28.1
2022-12-04T13:15:16.948Z,27.6
2022-12-04T13:20:16.934Z,27.7
2022-12-04T13:25:17.209Z,27.3
2022-12-04T13:30:16.907Z,28.2
2022-12-04T13:35:16.863Z,28.0
2022-12-04T13:40:16.961Z,28.9
2022-12-04T13:45:17.054Z,28.6
2022-12-04T13:50:16.976Z,28.3
2022-12-04T13:55:17.001Z,28.1
2022-12-04T14:00:17.174Z,29.3
2022-12-04T14:05:17.087Z,27.8
2022-12-04T14:10:16.954Z,27.8
2022-12-04T14:15:17.139Z,27.8
2022-12-04T14:20:17.111Z,28.2
2022-12-04T14:25:17.188Z,28.2
2022-12-04T14:30:16.995Z,27.5
2022-12-04T14:35:17.037Z,26.9
2022-12-04T14:40:16.989Z,26.9
2022-12-04T14:45:17.060Z,26.9
2022-12-04T14:50:17.050Z,26.9
2022-12-04T14:55:17.031Z,25.9
2022-12-04T15:00:17.134Z,25.9
2022-12-04T15:05:17.111Z,25.9
2022-12-04T15:10:17.303Z,26.0
2022-12-04T15:15:17.071Z,26.5
2022-12-04T15:20:17.171Z,25.7
2022-12-04T15:25:17.201Z,26.7
2022-12-04T15:30:17.164Z,26.3
2022-12-04T15:35:17.171Z,26.2
2022-12-04T15:40:17.264Z,26.7
2022-12-04T15:45:17.184Z,26.1
2022-12-04T15:50:17.338Z,25.8
2022-12-04T15:55:17.110Z,26.6
2022-12-04T16:00:17.285Z,26.6
2022-12-04T16:05:17.168Z,25.5
2022-12-04T16:10:17.242Z,25.5
2022-12-04T16:15:17.309Z,25.8
2022-12-04T16:20:17.198Z,26.2
2022-12-04T16:25:17.265Z,25.7
2022-12-04T16:30:17.301Z,26.4
2022-12-04T16:35:17.384Z,25.8
2022-12-04T16:40:17.259Z,25.5
2022-12-04T16:45:17.217Z,26.0
2022-12-04T16:50:17.319Z,24.9
2022-12-04T16:55:17.416Z,25.2
2022-12-04T17:00:17.321Z,26.2
2022-12-04T17:05:17.371Z,24.6
2022-12-04T17:10:21.988Z,25.7
2022-12-04T17:15:17.399Z,25.8
2022-12-04T17:20:17.332Z,24.6
2022-12-04T17:25:17.485Z,26.0
2022-12-04T17:30:15.289Z,25.1
2022-12-04T17:35:15.397Z,25.2
2022-12-04T17:40:15.472Z,24.7
2022-12-04T17:45:15.802Z,24.7
2022-12-04T17:50:16.598Z,26.5
2022-12-04T17:55:15.385Z,26.0
2022-12-04T18:00:15.488Z,26.1
2022-12-04T18:05:15.481Z,24.7
2022-12-04T18:10:15.476Z,25.1
2022-12-04T18:15:15.598Z,25.0
2022-12-04T18:20:15.452Z,25.9
2022-12-04T18:25:15.605Z,26.3
2022-12-04T18:30:15.558Z,25.8
2022-12-04T18:35:15.683Z,25.5
2022-12-04T18:40:15.532Z,25.6
2022-12-04T18:45:15.700Z,26.0
2022-12-04T18:50:15.550Z,25.6
2022-12-04T18:55:15.504Z,26.9
2022-12-04T19:00:15.579Z,26.7
2022-12-04T19:05:15.888Z,27.1
2022-12-04T19:10:15.817Z,26.1
2022-12-04T19:15:15.767Z,25.6
2022-12-04T19:20:15.722Z,26.1
2022-12-04T19:25:15.703Z,26.4
2022-12-04T19:30:15.602Z,25.4
2022-12-04T19:35:15.620Z,25.3
2022-12-04T19:40:15.660Z,26.2
2022-12-04T19:45:15.866Z,26.2
2022-12-04T19:50:15.639Z,25.8
2022-12-04T19:55:15.615Z,25.7
2022-12-04T20:00:15.649Z,24.8
2022-12-04T20:05:15.754Z,25.2
2022-12-04T20:10:15.809Z,24.7
2022-12-04T20:15:15.704Z,25.1
2022-12-04T20:20:15.748Z,25.0
2022-12-04T20:25:15.852Z,24.4
2022-12-04T20:30:15.759Z,24.0
2022-12-04T20:35:15.985Z,24.8
2022-12-04T20:40:15.833Z,24.7
2022-12-04T20:45:15.751Z,24.2
2022-12-04T20:50:15.817Z,24.6
2022-12-04T20:55:15.975Z,24.5
2022-12-04T21:00:15.976Z,24.1
2022-12-04T21:05:15.964Z,24.5
2022-12-04T21:10:15.918Z,24.8
2022-12-04T21:15:15.807Z,24.9
2022-12-04T21:20:15.882Z,24.4
2022-12-04T21:25:15.939Z,24.0
2022-12-04T21:30:15.849Z,24.4
2022-12-04T21:35:16.040Z,24.0
2022-12-04T21:40:16.097Z,23.9
2022-12-04T21:45:15.960Z,23.9
2022-12-04T21:50:15.938Z,24.7
2022-12-04T21:55:15.901Z,24.7
2022-12-04T22:00:15.943Z,23.8
2022-12-04T22:05:16.138Z,24.7
2022-12-04T22:10:16.068Z,24.7
2022-12-04T22:15:16.021Z,25.5
2022-12-04T22:20:15.954Z,25.0
2022-12-04T22:25:16.037Z,25.0
2022-12-04T22:30:15.996Z,24.6
2022-12-04T22:35:16.045Z,24.0
2022-12-04T22:40:16.122Z,25.2
2022-12-04T22:45:16.066Z,25.1
2022-12-04T22:50:16.195Z,25.9
2022-12-04T22:55:16.077Z,25.8
2022-12-04T23:00:16.107Z,24.9
2022-12-04T23:05:16.220Z,24.9
2022-12-04T23:10:16.174Z,26.1
2022-12-04T23:15:16.231Z,26.4
2022-12-04T23:20:16.120Z,26.7
2022-12-04T23:25:16.290Z,26.5
2022-12-04T23:30:18.194Z,26.9
2022-12-04T23:35:16.213Z,26.9
2022-12-04T23:40:16.102Z,26.8
2022-12-04T23:45:16.180Z,26.7
2022-12-04T23:50:16.355Z,26.7
2022-12-04T23:55:16.147Z,26.6
